createdAt,value
2022-12-31T06:02:09.514Z,3.80
2022-12-31T06:04:36.783Z,3.60
2022-12-31T06:07:03.920Z,3.90
2022-12-31T06:09:31.262Z,3.50
2022-12-31T06:11:58.723Z,4.70
2022-12-31T06:14:26.180Z,3.80
2022-12-31T06:16:53.551Z,4.20
2022-12-31T06:19:20.929Z,4.60
2022-12-31T06:21:48.569Z,4.30
2022-12-31T06:24:15.889Z,4.50
2022-12-31T06:26:43.432Z,5.80
2022-12-31T06:29:10.902Z,6.60
2022-12-31T06:31:38.269Z,5.40
2022-12-31T06:34:05.547Z,6.30
2022-12-31T06:36:32.981Z,5.90
2022-12-31T06:39:01.987Z,6.00
2022-12-31T06:41:29.327Z,4.70
2022-12-31T06:43:56.665Z,5.10
2022-12-31T06:46:24.024Z,4.60
2022-12-31T06:48:51.297Z,3.90
2022-12-31T06:51:21.212Z,4.00
2022-12-31T06:53:51.903Z,4.10
2022-12-31T06:56:33.043Z,4.20
2022-12-31T06:59:03.953Z,3.20
2022-12-31T07:02:05.610Z,4.00
2022-12-31T07:05:14.397Z,4.50
2022-12-31T07:08:11.923Z,4.90
2022-12-31T07:11:12.819Z,6.40
2022-12-31T07:14:13.993Z,5.00
2022-12-31T07:16:47.453Z,6.20
2022-12-31T07:19:35.137Z,4.90
2022-12-31T07:22:03.897Z,5.30
2022-12-31T07:24:31.733Z,4.60
2022-12-31T07:27:50.253Z,4.10
2022-12-31T07:30:32.542Z,4.10
2022-12-31T07:33:36.656Z,3.90
2022-12-31T07:36:07.237Z,3.80
2022-12-31T07:38:55.593Z,5.00
2022-12-31T07:41:58.914Z,3.80
2022-12-31T07:44:48.687Z,5.10
2022-12-31T07:47:27.366Z,6.10
2022-12-31T07:49:57.082Z,5.40
2022-12-31T07:52:25.823Z,5.00
2022-12-31T07:54:53.152Z,5.20
2022-12-31T07:57:26.495Z,4.80
2022-12-31T08:00:02.791Z,4.30
2022-12-31T08:02:48.167Z,5.10
2022-12-31T08:05:38.534Z,5.00
2022-12-31T08:08:41.204Z,4.00
2022-12-31T08:11:15.493Z,4.30
2022-12-31T08:13:43.566Z,3.60
2022-12-31T08:16:12.738Z,3.50
2022-12-31T08:18:41.058Z,4.80
2022-12-31T08:21:32.755Z,3.70
2022-12-31T08:24:20.416Z,3.90
2022-12-31T08:27:04.795Z,3.70
2022-12-31T08:30:07.793Z,3.20
2022-12-31T08:33:07.176Z,3.70
2022-12-31T08:35:52.524Z,3.40
2022-12-31T08:38:46.753Z,2.70
2022-12-31T08:41:29.640Z,3.20
2022-12-31T08:44:09.977Z,3.90
2022-12-31T08:46:52.593Z,3.20
2022-12-31T08:49:20.430Z,3.10
2022-12-31T08:51:48.395Z,3.00
2022-12-31T08:54:16.177Z,3.30
2022-12-31T08:56:56.333Z,2.90
2022-12-31T08:59:46.987Z,3.00
2022-12-31T09:02:32.822Z,3.40
2022-12-31T09:05:32.820Z,3.10
2022-12-31T09:08:22.923Z,2.70
2022-12-31T09:11:23.620Z,3.80
2022-12-31T09:14:03.858Z,3.40
2022-12-31T09:17:01.532Z,2.40
2022-12-31T09:19:28.873Z,3.00
2022-12-31T09:21:56.649Z,2.90
2022-12-31T09:24:24.357Z,3.20
2022-12-31T09:27:12.831Z,3.40
2022-12-31T09:30:06.351Z,3.10
2022-12-31T09:33:25.849Z,3.30
2022-12-31T09:35:58.135Z,3.70
2022-12-31T09:38:37.492Z,3.90
2022-12-31T09:41:41.213Z,2.90
2022-12-31T09:45:00.452Z,3.70
2022-12-31T09:48:34.069Z,3.60
2022-12-31T09:51:30.873Z,4.30
2022-12-31T09:54:09.697Z,5.80
2022-12-31T09:56:47.977Z,4.60
2022-12-31T09:59:26.480Z,4.00
2022-12-31T10:02:01.973Z,4.00
2022-12-31T10:05:02.055Z,4.10
2022-12-31T10:07:53.591Z,5.30
2022-12-31T10:10:29.933Z,3.40
2022-12-31T10:13:09.010Z,3.90
2022-12-31T10:15:48.113Z,3.40
2022-12-31T10:18:51.737Z,3.40
2022-12-31T10:21:48.193Z,3.60
2022-12-31T10:24:52.493Z,3.30
2022-12-31T10:27:43.061Z,3.80
2022-12-31T10:30:24.364Z,3.60
2022-12-31T10:33:29.708Z,3.50
2022-12-31T10:36:27.424Z,3.70
2022-12-31T10:40:06.113Z,5.90
2022-12-31T10:42:36.474Z,3.40
2022-12-31T10:45:51.231Z,3.60
2022-12-31T10:48:33.618Z,3.20
2022-12-31T10:51:27.971Z,6.10
2022-12-31T10:54:33.032Z,4.30
2022-12-31T10:57:49.853Z,4.60
2022-12-31T11:00:19.257Z,5.10
2022-12-31T11:03:29.324Z,4.50
2022-12-31T11:06:47.061Z,4.90
2022-12-31T11:09:41.736Z,4.00
2022-12-31T11:12:39.713Z,4.50
2022-12-31T11:15:22.081Z,3.90
2022-12-31T11:18:29.069Z,4.20
2022-12-31T11:21:20.552Z,3.30
2022-12-31T11:24:18.057Z,4.70
2022-12-31T11:27:37.147Z,3.80
2022-12-31T11:30:48.041Z,5.60
2022-12-31T11:33:30.707Z,4.60
2022-12-31T11:36:19.013Z,4.20
2022-12-31T11:39:01.088Z,4.10
2022-12-31T11:41:44.742Z,3.90
2022-12-31T11:44:54.812Z,4.50
2022-12-31T11:48:20.121Z,3.90
2022-12-31T11:51:05.539Z,3.70
2022-12-31T11:54:03.336Z,4.20
2022-12-31T11:56:58.126Z,3.90
2022-12-31T11:59:27.368Z,3.40
2022-12-31T12:02:16.347Z,4.50
2022-12-31T12:04:48.107Z,4.20
2022-12-31T12:07:17.561Z,5.40
2022-12-31T12:09:46.507Z,6.00
2022-12-31T12:12:15.226Z,4.30
2022-12-31T12:14:46.672Z,4.30
2022-12-31T12:17:26.356Z,5.50
2022-12-31T12:19:56.717Z,6.40
2022-12-31T12:22:27.153Z,7.30
2022-12-31T12:25:15.707Z,6.80
2022-12-31T12:27:43.273Z,5.90
2022-12-31T12:30:18.290Z,5.40
2022-12-31T12:32:56.013Z,6.20
2022-12-31T12:35:31.532Z,7.40
2022-12-31T12:38:13.371Z,6.40
2022-12-31T12:40:41.673Z,6.70
2022-12-31T12:43:32.580Z,5.50
2022-12-31T12:46:05.891Z,5.60
2022-12-31T12:48:45.834Z,5.80
2022-12-31T12:51:32.595Z,5.90
2022-12-31T12:55:00.018Z,10.30
2022-12-31T12:58:02.692Z,8.90
2022-12-31T13:01:37.459Z,6.40
2022-12-31T13:04:35.793Z,7.00
2022-12-31T13:07:56.226Z,6.90
2022-12-31T13:10:58.054Z,7.10
2022-12-31T13:13:55.799Z,4.80
2022-12-31T13:17:01.376Z,4.90
2022-12-31T13:19:38.334Z,6.50
2022-12-31T13:22:35.473Z,5.10
2022-12-31T13:25:11.746Z,6.50
2022-12-31T13:27:45.971Z,5.20
2022-12-31T13:30:32.594Z,6.00
2022-12-31T13:33:33.073Z,5.90
2022-12-31T13:36:07.562Z,5.30
2022-12-31T13:38:45.730Z,6.50
2022-12-31T13:41:41.776Z,5.20
2022-12-31T13:44:53.947Z,5.20
2022-12-31T13:47:45.173Z,5.60
2022-12-31T13:50:29.647Z,5.60
2022-12-31T13:53:05.576Z,5.70
2022-12-31T13:55:41.803Z,4.70
2022-12-31T13:58:27.616Z,5.40
2022-12-31T14:01:19.093Z,5.30
2022-12-31T14:04:36.852Z,4.70
2022-12-31T14:07:16.522Z,5.20
2022-12-31T14:09:46.079Z,7.40
2022-12-31T14:12:41.793Z,5.90
2022-12-31T14:15:41.312Z,5.70
2022-12-31T14:19:01.258Z,6.70
2022-12-31T14:21:44.863Z,6.40
2022-12-31T14:24:21.103Z,5.80
2022-12-31T14:26:57.723Z,6.00
2022-12-31T14:29:51.490Z,8.10
2022-12-31T14:32:31.892Z,5.20
2022-12-31T14:35:55.212Z,5.20
2022-12-31T14:38:53.514Z,6.10
2022-12-31T14:42:23.180Z,5.40
2022-12-31T14:45:18.152Z,5.80
2022-12-31T14:47:56.828Z,4.90
2022-12-31T14:50:29.787Z,5.60
2022-12-31T14:53:00.716Z,5.30
2022-12-31T14:55:43.045Z,6.30
2022-12-31T14:58:38.797Z,5.10
2022-12-31T15:01:22.589Z,4.50
2022-12-31T15:03:57.467Z,7.60
2022-12-31T15:06:37.659Z,8.20
2022-12-31T15:09:33.334Z,6.60
2022-12-31T15:12:29.053Z,6.90
2022-12-31T15:15:33.017Z,6.90
2022-12-31T15:18:53.540Z,5.20
2022-12-31T15:22:13.752Z,5.60
2022-12-31T15:24:47.899Z,6.40
2022-12-31T15:27:42.507Z,6.10
2022-12-31T15:30:35.060Z,6.80
2022-12-31T15:33:08.760Z,10.30
2022-12-31T15:35:55.727Z,12.20
2022-12-31T15:38:40.315Z,5.70
2022-12-31T15:41:19.914Z,7.50
2022-12-31T15:49:20.817Z,6.60
2022-12-31T15:52:21.283Z,5.30
2022-12-31T15:54:58.337Z,12.80
2022-12-31T15:57:40.981Z,10.10
2022-12-31T16:00:23.610Z,6.80
2022-12-31T16:02:56.629Z,5.50
2022-12-31T16:05:28.816Z,6.80
2022-12-31T16:07:59.981Z,5.90
2022-12-31T16:10:32.558Z,5.50
2022-12-31T16:13:01.706Z,9.00
2022-12-31T16:15:34.740Z,7.20
2022-12-31T16:18:13.736Z,6.70
2022-12-31T16:20:49.207Z,6.30
2022-12-31T16:23:28.204Z,5.10
2022-12-31T16:26:03.474Z,6.60
2022-12-31T16:28:35.215Z,6.10
2022-12-31T16:31:08.781Z,5.10
2022-12-31T16:33:37.837Z,4.80
2022-12-31T16:36:07.344Z,5.00
2022-12-31T16:38:38.283Z,5.50
2022-12-31T16:41:20.253Z,5.60
2022-12-31T16:43:51.491Z,5.90
2022-12-31T16:46:29.221Z,6.50
2022-12-31T16:49:19.241Z,5.70
2022-12-31T16:51:49.979Z,6.20
2022-12-31T16:54:41.177Z,7.70
2022-12-31T16:57:23.055Z,6.80
2022-12-31T17:00:01.899Z,7.20
2022-12-31T17:02:41.075Z,7.70
2022-12-31T17:05:28.478Z,7.00
2022-12-31T17:07:57.871Z,8.40
2022-12-31T17:10:36.818Z,8.00
2022-12-31T17:13:28.034Z,7.80
2022-12-31T17:15:59.906Z,8.50
2022-12-31T17:18:38.505Z,6.40
2022-12-31T17:21:11.354Z,7.90
2022-12-31T17:23:42.867Z,7.60
2022-12-31T17:26:24.372Z,7.20
2022-12-31T17:28:57.186Z,6.50
2022-12-31T17:31:42.935Z,8.80
2022-12-31T17:34:15.626Z,9.10
2022-12-31T17:37:22.159Z,9.70
2022-12-31T17:39:54.247Z,14.00
2022-12-31T17:42:37.481Z,9.70
2022-12-31T17:45:21.802Z,10.30
2022-12-31T17:47:54.195Z,10.50
2022-12-31T17:50:27.178Z,9.80
2022-12-31T17:53:13.715Z,11.20
2022-12-31T17:55:48.699Z,9.40
2022-12-31T17:58:35.120Z,11.00
2022-12-31T18:01:09.422Z,8.90
2022-12-31T18:03:39.684Z,10.40
2022-12-31T18:06:16.525Z,9.80
2022-12-31T18:08:47.833Z,8.70
2022-12-31T18:11:22.922Z,9.00
2022-12-31T18:13:54.725Z,9.40
2022-12-31T18:16:24.094Z,7.40
2022-12-31T18:18:53.792Z,7.10
2022-12-31T18:21:34.604Z,6.70
2022-12-31T18:26:34.857Z,8.40
2022-12-31T18:29:18.964Z,8.80
2022-12-31T18:31:50.463Z,9.80
2022-12-31T18:34:20.355Z,8.90
2022-12-31T18:36:49.356Z,10.20
2022-12-31T18:39:18.383Z,9.40
2022-12-31T18:41:51.648Z,10.00
2022-12-31T18:44:20.735Z,9.10
2022-12-31T18:46:50.721Z,7.60
2022-12-31T18:49:19.655Z,9.10
2022-12-31T18:51:53.879Z,9.30
2022-12-31T18:54:22.856Z,7.90
2022-12-31T18:56:56.880Z,9.00
2022-12-31T18:59:26.195Z,6.90
2022-12-31T19:01:55.858Z,5.60
2022-12-31T19:04:27.877Z,6.00
2022-12-31T19:06:57.994Z,5.30
2022-12-31T19:12:17.144Z,7.00
2022-12-31T19:14:46.580Z,6.60
2022-12-31T19:17:15.557Z,6.40
2022-12-31T19:19:45.843Z,8.00
2022-12-31T19:22:16.099Z,9.50
2022-12-31T19:24:46.116Z,8.00
2022-12-31T19:27:15.785Z,8.10
2022-12-31T19:29:45.010Z,7.00
2022-12-31T19:32:13.982Z,6.90
2022-12-31T19:34:42.795Z,7.40
2022-12-31T19:37:19.063Z,6.80
2022-12-31T19:39:49.199Z,7.30
2022-12-31T19:42:19.138Z,6.20
2022-12-31T19:44:48.282Z,7.50
2022-12-31T19:47:17.295Z,6.10
2022-12-31T19:49:47.667Z,7.70
2022-12-31T19:52:18.421Z,6.10
2022-12-31T19:54:48.322Z,7.50
2022-12-31T19:57:17.379Z,5.40
2022-12-31T19:59:46.794Z,5.40
2022-12-31T20:02:15.671Z,7.70
2022-12-31T20:04:44.660Z,5.70
2022-12-31T20:07:13.756Z,5.80
2022-12-31T20:09:42.536Z,7.10
2022-12-31T20:12:11.329Z,7.70
2022-12-31T20:14:40.303Z,7.90
2022-12-31T20:17:09.435Z,8.30
2022-12-31T20:19:38.817Z,9.00
2022-12-31T20:22:08.985Z,8.70
2022-12-31T20:24:38.768Z,8.50
2022-12-31T20:27:13.498Z,9.00
2022-12-31T20:29:46.258Z,6.80
2022-12-31T20:32:15.599Z,7.00
2022-12-31T20:34:44.603Z,7.70
2022-12-31T20:37:13.624Z,8.00
2022-12-31T20:39:43.214Z,7.40
2022-12-31T20:42:13.411Z,5.70
2022-12-31T20:44:42.575Z,7.20
2022-12-31T20:47:12.376Z,8.30
2022-12-31T20:50:12.169Z,8.70
2022-12-31T20:52:30.656Z,8.20
2022-12-31T20:54:59.778Z,7.60
2022-12-31T20:57:33.371Z,7.30
2022-12-31T21:00:05.056Z,7.30
2022-12-31T21:02:42.316Z,8.10
2022-12-31T21:05:12.237Z,6.80
2022-12-31T21:07:41.298Z,7.60
2022-12-31T21:10:10.398Z,6.70
2022-12-31T21:12:46.977Z,9.70
2022-12-31T21:15:16.895Z,7.90
2022-12-31T21:17:46.433Z,8.20
2022-12-31T21:20:15.898Z,7.50
2022-12-31T21:22:44.795Z,7.90
2022-12-31T21:25:13.692Z,9.10
2022-12-31T21:27:42.587Z,8.40
2022-12-31T21:30:20.601Z,8.80
2022-12-31T21:32:49.771Z,8.20
2022-12-31T21:38:09.500Z,7.60
2022-12-31T21:40:38.980Z,7.30
2022-12-31T21:43:08.084Z,8.80
2022-12-31T21:45:37.068Z,7.30
2022-12-31T21:48:23.877Z,7.00
2022-12-31T21:51:04.537Z,6.90
2022-12-31T21:53:36.939Z,7.30
2022-12-31T21:56:10.536Z,7.20
2022-12-31T21:58:45.104Z,8.20
2022-12-31T22:01:41.311Z,8.10
2022-12-31T22:04:35.161Z,8.60
2022-12-31T22:06:59.702Z,7.20
2022-12-31T22:09:28.579Z,9.20
2022-12-31T22:11:57.738Z,9.20
2022-12-31T22:14:26.785Z,8.10
2022-12-31T22:16:55.515Z,10.60
2022-12-31T22:19:25.419Z,7.90
2022-12-31T22:21:54.209Z,7.90
2022-12-31T22:24:23.096Z,6.80
2022-12-31T22:26:54.658Z,6.20
2022-12-31T22:29:26.937Z,5.40
2022-12-31T22:32:00.968Z,6.70
2022-12-31T22:34:30.232Z,6.10
2022-12-31T22:37:08.994Z,6.40
2022-12-31T22:39:48.576Z,7.40
2022-12-31T22:42:17.716Z,7.50
2022-12-31T22:44:47.493Z,6.90
2022-12-31T22:47:16.520Z,6.60
2022-12-31T22:49:45.298Z,6.10
2022-12-31T22:52:14.195Z,7.50
2022-12-31T22:54:43.157Z,6.70
2022-12-31T22:57:17.836Z,8.20
2022-12-31T22:59:50.906Z,7.10
2022-12-31T23:02:24.115Z,8.60
2022-12-31T23:04:54.607Z,8.90
2022-12-31T23:07:44.765Z,11.60
2022-12-31T23:10:33.376Z,13.80
2022-12-31T23:13:21.479Z,12.00
2022-12-31T23:16:09.891Z,12.30
2022-12-31T23:19:05.062Z,22.70
2022-12-31T23:22:01.162Z,26.90
2022-12-31T23:24:39.821Z,25.00
2022-12-31T23:27:44.672Z,25.20
2022-12-31T23:30:33.983Z,21.50
2022-12-31T23:33:10.944Z,15.70
2022-12-31T23:36:00.779Z,15.60
2022-12-31T23:38:52.405Z,13.90
2022-12-31T23:42:03.765Z,13.90
2022-12-31T23:44:44.995Z,9.20
2022-12-31T23:47:21.667Z,9.40
2022-12-31T23:50:07.184Z,7.50
2022-12-31T23:52:47.727Z,9.10
2022-12-31T23:55:41.724Z,8.90
2022-12-31T23:58:29.291Z,8.30
